Aeroporto :
LOGIN :

Iscrizione | Disclaimer

   EN    FR    IT 

 










Sommario :    VFR   VFR Marginale   IFR   IFR Intensivo   IFR Molto Intensivo
Visibilità : 
Base nubi : 
>= 8 km
>= 3000ft
5 / 8 km
1000 / 3000 ft
1500m / 5 km
500 / 1000 ft
800 / 1500m
200 / 500 ft
< 800m
< 200 ft
Simboli :   Temporali  Nebbia  Neve Forte  Precipitazioni Forti  Vento > 20 kt
SIGMETs :   Varie  Temporali  Ghiacco  Turbolenza  Onda orograficha  Ceneri Vulcaniche






- Altitudine del aeroporto : 102 ft
- Codice IATA : KEL


EDHK - Holtenau

ULTIMO METAR :
  • 272020Z AUTO 18009KT 150V220 9999 // FEW037/// BKN110/// 10/07 Q1002

METARs OBSOLETI :
  • 271950Z AUTO 19008KT 9999 // FEW042/// BKN084/// OVC160/// 10/07 Q1002
  • 271920Z AUTO 20008KT 9999 // BKN046/// OVC089/// 10/06 Q1002
  • 271850Z AUTO 19008KT 9999 // FEW025/// BKN044/// OVC190/// 10/06 Q1002
  • 271820Z AUTO 19008KT 160V220 9999 // FEW032/// BKN180/// 10/06 Q1002
  • 271750Z AUTO 19008KT 9999 // FEW023/// BKN066/// BKN190/// 10/07 Q1003

Previsioni scadute.



MetMap, La meteo Aeronautica in un colpo d'occhio ! - Copyright ORBIFLY Dicembre 2007 - Disclaimer

ORBIFLY MET'MAP TEAM :

Programmazione e sviluppo : Alexandra Zaïnal
Concezione : Baudouin d'Aumeries
Aiuto per la programmazione : Marc-Olivier Méhu
Supporto tecnico e logistico : Manuel Goepfert
Aiuto per la traduzione : Arnaldo La Scala

Contatto : metmap@orbifly.com




FONTI E CREDITI :

   NOAA